Time;durP1;ratioP1;P1;durP2;ratioP2;P2;SDS_P1;SDS_P2;PMS_P1;PMS_P2;Temp;Humidity;BMP_temperature;BMP_pressure;BME280_temperature;BME280_humidity;BME280_pressure;Samples;Min_cycle;Max_cycle;Signal;HPM_P1;HPM_P2
2022/08/21 00:00:25;;;;;;;9.48;5.63;;;;;;;;;;5031772;28;20241;-13
2022/08/21 00:02:54;;;;;;;9.80;5.53;;;;;;;;;;5028901;28;20231;-13
2022/08/21 00:05:21;;;;;;;10.55;6.40;;;;;;;;;;5022466;28;20231;-13
2022/08/21 00:07:48;;;;;;;12.20;6.97;;;;;;;;;;5029523;28;20273;-13
2022/08/21 00:10:16;;;;;;;11.02;7.25;;;;;;;;;;5032989;28;20672;-12
2022/08/21 00:12:45;;;;;;;12.88;7.40;;;;;;;;;;5038905;28;20233;-13
2022/08/21 00:15:14;;;;;;;10.80;6.18;;;;;;;;;;5032196;28;20241;-13
2022/08/21 00:17:42;;;;;;;9.85;5.65;;;;;;;;;;5026194;28;20338;-13
2022/08/21 00:20:10;;;;;;;8.80;5.20;;;;;;;;;;5032891;28;20234;-13
2022/08/21 00:22:37;;;;;;;8.93;5.53;;;;;;;;;;5032529;28;21002;-13
2022/08/21 00:25:05;;;;;;;8.75;5.10;;;;;;;;;;5032478;28;20686;-13
2022/08/21 00:27:33;;;;;;;8.43;5.30;;;;;;;;;;5032717;28;20266;-13
2022/08/21 00:30:01;;;;;;;6.90;5.13;;;;;;;;;;5032607;28;20261;-13
2022/08/21 00:32:29;;;;;;;11.57;5.10;;;;;;;;;;5032531;28;20706;-13
2022/08/21 00:34:56;;;;;;;7.78;5.15;;;;;;;;;;5033190;28;20231;-13
2022/08/21 00:37:23;;;;;;;6.30;4.35;;;;;;;;;;5032664;28;20237;-13
2022/08/21 00:39:51;;;;;;;8.02;5.20;;;;;;;;;;5032242;28;20237;-13
2022/08/21 00:42:19;;;;;;;8.48;4.70;;;;;;;;;;5032721;28;20318;-13
2022/08/21 00:44:47;;;;;;;7.90;4.90;;;;;;;;;;5029570;28;20242;-13
2022/08/21 00:47:16;;;;;;;8.23;4.88;;;;;;;;;;5030683;28;20241;-13
2022/08/21 00:49:44;;;;;;;9.20;4.95;;;;;;;;;;5032438;28;20790;-13
2022/08/21 00:52:12;;;;;;;8.13;4.88;;;;;;;;;;5032537;28;20277;-13
2022/08/21 00:54:39;;;;;;;8.20;4.68;;;;;;;;;;5032285;28;20231;-13
2022/08/21 00:57:13;;;;;;;7.70;4.90;;;;;;;;;;5032803;28;20333;-13
2022/08/21 00:59:41;;;;;;;8.68;4.82;;;;;;;;;;5032509;28;20720;-13
2022/08/21 01:02:08;;;;;;;11.68;5.18;;;;;;;;;;5032737;28;20247;-13
2022/08/21 01:04:37;;;;;;;8.45;5.18;;;;;;;;;;5029246;28;20231;-13
2022/08/21 01:07:05;;;;;;;7.38;5.15;;;;;;;;;;5028587;28;21060;-13
2022/08/21 01:09:32;;;;;;;7.95;4.68;;;;;;;;;;5018340;28;20245;-13
2022/08/21 01:11:59;;;;;;;6.85;4.93;;;;;;;;;;5032429;28;20227;-12
2022/08/21 01:14:28;;;;;;;9.85;5.35;;;;;;;;;;5032206;28;20285;-12
2022/08/21 01:16:55;;;;;;;9.07;4.85;;;;;;;;;;5031526;28;20767;-13
2022/08/21 01:19:23;;;;;;;7.47;4.38;;;;;;;;;;5032346;28;20670;-13
2022/08/21 01:21:51;;;;;;;4.80;3.85;;;;;;;;;;5031578;28;20249;-13
2022/08/21 01:24:19;;;;;;;6.45;3.97;;;;;;;;;;5024409;28;20588;-13
2022/08/21 01:26:46;;;;;;;7.82;4.70;;;;;;;;;;5027199;28;20235;-13
2022/08/21 01:29:14;;;;;;;8.05;4.70;;;;;;;;;;5037166;28;20665;-13
2022/08/21 01:31:41;;;;;;;7.60;5.03;;;;;;;;;;5030014;28;20241;-13
2022/08/21 01:34:09;;;;;;;6.60;4.47;;;;;;;;;;5030142;28;20257;-13
2022/08/21 01:36:36;;;;;;;8.55;5.05;;;;;;;;;;5027446;28;20241;-13
2022/08/21 01:39:05;;;;;;;7.65;4.40;;;;;;;;;;5031758;28;20229;-13
2022/08/21 01:41:33;;;;;;;8.25;4.70;;;;;;;;;;5031949;28;20234;-13
2022/08/21 01:44:00;;;;;;;9.50;4.43;;;;;;;;;;5031710;28;20234;-13
2022/08/21 01:46:27;;;;;;;8.52;4.38;;;;;;;;;;5030722;28;20289;-13
2022/08/21 01:48:55;;;;;;;5.80;3.63;;;;;;;;;;5031592;28;20243;-13
2022/08/21 01:51:22;;;;;;;5.40;4.25;;;;;;;;;;5031372;28;20227;-12
2022/08/21 01:53:50;;;;;;;6.32;3.95;;;;;;;;;;5030835;28;20231;-12
2022/08/21 01:56:18;;;;;;;6.28;4.18;;;;;;;;;;5030776;28;20237;-12
2022/08/21 01:58:46;;;;;;;5.68;3.58;;;;;;;;;;5031105;28;20710;-13
2022/08/21 02:01:14;;;;;;;6.05;3.72;;;;;;;;;;5031524;28;21106;-12
2022/08/21 02:03:41;;;;;;;7.03;3.47;;;;;;;;;;5031224;28;20293;-13
2022/08/21 02:06:12;;;;;;;4.43;3.38;;;;;;;;;;5026991;28;20245;-12
2022/08/21 02:08:40;;;;;;;8.55;3.50;;;;;;;;;;5029400;28;20237;-13
2022/08/21 02:11:07;;;;;;;4.22;2.83;;;;;;;;;;5031477;28;21067;-13
2022/08/21 02:13:36;;;;;;;6.35;3.35;;;;;;;;;;5031068;28;20639;-13
2022/08/21 02:16:04;;;;;;;4.68;3.22;;;;;;;;;;5031335;28;20235;-13
2022/08/21 02:18:31;;;;;;;6.53;3.10;;;;;;;;;;5030179;28;20231;-13
2022/08/21 02:20:59;;;;;;;5.80;3.35;;;;;;;;;;5043006;22;20199;-14
2022/08/21 02:23:26;;;;;;;5.90;3.03;;;;;;;;;;5066322;28;20264;-14
2022/08/21 02:25:54;;;;;;;4.78;3.03;;;;;;;;;;5047334;28;20677;-14
2022/08/21 02:28:21;;;;;;;4.43;3.40;;;;;;;;;;5062442;28;20233;-14
2022/08/21 02:30:50;;;;;;;8.95;3.58;;;;;;;;;;5054635;28;20238;-14
2022/08/21 02:33:18;;;;;;;5.10;2.65;;;;;;;;;;5051893;28;20234;-15
2022/08/21 02:35:45;;;;;;;5.97;3.65;;;;;;;;;;5052009;28;20677;-16
2022/08/21 02:38:13;;;;;;;4.35;3.00;;;;;;;;;;5064632;28;20237;-16
2022/08/21 02:40:41;;;;;;;7.70;3.15;;;;;;;;;;5049247;28;20549;-16
2022/08/21 02:43:14;;;;;;;4.82;2.78;;;;;;;;;;5047244;28;20300;-16
2022/08/21 02:45:42;;;;;;;6.68;3.30;;;;;;;;;;5049120;28;20253;-16
2022/08/21 02:48:11;;;;;;;4.60;2.88;;;;;;;;;;5048472;28;20337;-15
2022/08/21 02:50:39;;;;;;;5.18;2.75;;;;;;;;;;5050151;28;20245;-16
2022/08/21 02:53:06;;;;;;;4.63;2.72;;;;;;;;;;5050997;28;20240;-16
2022/08/21 02:55:34;;;;;;;4.10;2.60;;;;;;;;;;5051198;28;20994;-16
2022/08/21 02:58:02;;;;;;;4.45;2.90;;;;;;;;;;5050564;28;20245;-15
2022/08/21 03:00:30;;;;;;;5.15;2.85;;;;;;;;;;5050291;28;20245;-16
2022/08/21 03:02:57;;;;;;;3.33;2.72;;;;;;;;;;5060897;28;20233;-16
2022/08/21 03:05:27;;;;;;;3.72;2.90;;;;;;;;;;5050815;28;20226;-15
2022/08/21 03:07:54;;;;;;;4.50;3.03;;;;;;;;;;5049092;28;20252;-15
2022/08/21 03:10:22;;;;;;;6.38;2.60;;;;;;;;;;5050108;28;20584;-15
2022/08/21 03:12:49;;;;;;;10.23;2.70;;;;;;;;;;5050241;28;20237;-15
2022/08/21 03:15:17;;;;;;;4.00;2.47;;;;;;;;;;5050104;28;20230;-15
2022/08/21 03:17:45;;;;;;;3.30;2.40;;;;;;;;;;5036599;28;20360;-15
2022/08/21 03:20:13;;;;;;;3.40;2.67;;;;;;;;;;5050383;28;20230;-15
2022/08/21 03:22:42;;;;;;;3.92;2.65;;;;;;;;;;5049604;28;20663;-15
2022/08/21 03:25:20;;;;;;;5.97;2.80;;;;;;;;;;5050251;28;20232;-15
2022/08/21 03:27:57;;;;;;;6.00;2.95;;;;;;;;;;5036623;28;20234;-14
2022/08/21 03:30:26;;;;;;;4.72;2.80;;;;;;;;;;5046326;28;20249;-16
2022/08/21 03:32:53;;;;;;;4.00;3.08;;;;;;;;;;5049491;28;20237;-15
2022/08/21 03:35:22;;;;;;;4.85;2.80;;;;;;;;;;5050444;28;20246;-15
2022/08/21 03:37:50;;;;;;;4.90;3.17;;;;;;;;;;5049713;28;20233;-15
2022/08/21 03:40:18;;;;;;;4.07;2.75;;;;;;;;;;5045512;28;21056;-15
2022/08/21 03:42:46;;;;;;;6.90;3.22;;;;;;;;;;5044986;28;20233;-15
2022/08/21 03:45:14;;;;;;;5.88;2.85;;;;;;;;;;5050223;28;20226;-15
2022/08/21 03:47:50;;;;;;;6.68;3.15;;;;;;;;;;5049298;28;20230;-15
2022/08/21 03:50:18;;;;;;;3.95;2.72;;;;;;;;;;5037162;28;20274;-15
2022/08/21 03:52:45;;;;;;;5.00;3.22;;;;;;;;;;5050419;28;20226;-16
2022/08/21 03:55:14;;;;;;;4.10;3.15;;;;;;;;;;5050280;28;20234;-15
2022/08/21 03:57:41;;;;;;;6.25;3.42;;;;;;;;;;5049429;28;20237;-15
2022/08/21 04:00:11;;;;;;;6.40;3.13;;;;;;;;;;5048435;28;20245;-15
2022/08/21 04:02:38;;;;;;;8.45;3.03;;;;;;;;;;5049699;28;20701;-15
2022/08/21 04:05:06;;;;;;;6.47;3.30;;;;;;;;;;5049749;28;20222;-15
2022/08/21 04:07:33;;;;;;;3.92;2.85;;;;;;;;;;5050262;28;20701;-15
2022/08/21 04:10:00;;;;;;;3.90;2.97;;;;;;;;;;5049729;28;20241;-16
2022/08/21 04:12:30;;;;;;;7.30;2.83;;;;;;;;;;5047269;28;20230;-15
2022/08/21 04:14:57;;;;;;;4.47;3.08;;;;;;;;;;5045049;28;20260;-14
2022/08/21 04:17:24;;;;;;;6.47;3.05;;;;;;;;;;5044400;28;20227;-15
2022/08/21 04:19:52;;;;;;;5.32;3.00;;;;;;;;;;5049232;28;20249;-15
2022/08/21 04:22:20;;;;;;;4.55;2.67;;;;;;;;;;5051522;28;20245;-15
2022/08/21 04:24:48;;;;;;;3.63;2.70;;;;;;;;;;5053040;28;20233;-15
2022/08/21 04:27:15;;;;;;;4.32;2.67;;;;;;;;;;5052951;28;20238;-15
2022/08/21 04:29:44;;;;;;;4.50;2.85;;;;;;;;;;5052780;28;20241;-15
2022/08/21 04:32:11;;;;;;;4.90;2.70;;;;;;;;;;5052379;28;20238;-15
2022/08/21 04:34:38;;;;;;;4.38;2.92;;;;;;;;;;5052934;28;20230;-15
2022/08/21 04:37:06;;;;;;;4.55;2.30;;;;;;;;;;5052817;28;21232;-15
2022/08/21 04:39:33;;;;;;;4.43;2.63;;;;;;;;;;5051756;28;20234;-16
2022/08/21 04:42:00;;;;;;;5.25;2.92;;;;;;;;;;5052821;28;20618;-16
2022/08/21 04:44:28;;;;;;;7.53;3.20;;;;;;;;;;5052404;28;20234;-14
2022/08/21 04:46:57;;;;;;;4.68;2.80;;;;;;;;;;5043260;28;20724;-15
2022/08/21 04:49:24;;;;;;;4.70;2.45;;;;;;;;;;5047274;28;20994;-15
2022/08/21 04:51:51;;;;;;;5.40;2.80;;;;;;;;;;5052404;28;20685;-16
2022/08/21 04:54:19;;;;;;;4.05;2.65;;;;;;;;;;5052489;28;20233;-15
2022/08/21 04:56:48;;;;;;;6.30;3.10;;;;;;;;;;5052582;28;20238;-15
2022/08/21 04:59:16;;;;;;;4.65;2.53;;;;;;;;;;5037362;28;20241;-15
2022/08/21 05:01:43;;;;;;;3.72;2.38;;;;;;;;;;5050810;28;20230;-15
2022/08/21 05:04:13;;;;;;;4.30;2.33;;;;;;;;;;5051855;28;20450;-14
2022/08/21 05:06:40;;;;;;;4.40;2.88;;;;;;;;;;5052381;28;20236;-15
2022/08/21 05:09:09;;;;;;;4.32;2.47;;;;;;;;;;5052141;28;20242;-15
2022/08/21 05:11:36;;;;;;;4.60;2.70;;;;;;;;;;5051614;28;20253;-15
2022/08/21 05:14:04;;;;;;;5.70;2.80;;;;;;;;;;5052000;28;20237;-15
2022/08/21 05:16:31;;;;;;;5.22;2.97;;;;;;;;;;5051553;28;20241;-15
2022/08/21 05:19:04;;;;;;;9.38;2.55;;;;;;;;;;5047975;28;20337;-15
2022/08/21 05:21:33;;;;;;;5.00;2.30;;;;;;;;;;5051879;28;20242;-15
2022/08/21 05:24:00;;;;;;;5.85;2.38;;;;;;;;;;5050459;28;20728;-15
2022/08/21 05:26:27;;;;;;;6.68;2.28;;;;;;;;;;5049287;28;20241;-15
2022/08/21 05:28:55;;;;;;;6.90;2.95;;;;;;;;;;5049919;28;20230;-15
2022/08/21 05:31:23;;;;;;;4.95;2.78;;;;;;;;;;5049033;28;20712;-15
2022/08/21 05:33:50;;;;;;;4.28;2.53;;;;;;;;;;5049877;28;20733;-15
2022/08/21 05:36:18;;;;;;;5.60;2.28;;;;;;;;;;5048598;28;20639;-15
2022/08/21 05:38:47;;;;;;;5.05;2.47;;;;;;;;;;5048875;28;20870;-15
2022/08/21 05:41:14;;;;;;;3.63;2.58;;;;;;;;;;5052228;28;21020;-15
2022/08/21 05:43:41;;;;;;;4.22;2.72;;;;;;;;;;5051907;28;20515;-16
2022/08/21 05:46:09;;;;;;;5.25;2.65;;;;;;;;;;5051826;28;20238;-15
2022/08/21 05:48:36;;;;;;;3.90;2.50;;;;;;;;;;5052081;28;20257;-15
2022/08/21 05:51:05;;;;;;;4.22;2.63;;;;;;;;;;5051870;28;20244;-16
2022/08/21 05:53:32;;;;;;;4.72;2.60;;;;;;;;;;5051575;28;20238;-14
2022/08/21 05:56:03;;;;;;;4.18;2.72;;;;;;;;;;5051366;28;20249;-15
2022/08/21 05:58:30;;;;;;;4.53;2.40;;;;;;;;;;5042904;28;20223;-15
2022/08/21 06:00:58;;;;;;;6.15;2.67;;;;;;;;;;5044744;28;20234;-15
2022/08/21 06:03:28;;;;;;;5.65;2.50;;;;;;;;;;5039042;28;20265;-15
2022/08/21 06:05:55;;;;;;;4.45;2.70;;;;;;;;;;5051337;28;20313;-15
2022/08/21 06:08:23;;;;;;;4.07;2.65;;;;;;;;;;5037484;28;20238;-15
2022/08/21 06:10:50;;;;;;;4.28;3.08;;;;;;;;;;5044323;28;20682;-15
2022/08/21 06:13:19;;;;;;;6.53;2.92;;;;;;;;;;5051282;28;20238;-15
2022/08/21 06:15:47;;;;;;;5.72;3.03;;;;;;;;;;5051011;28;20697;-16
2022/08/21 06:18:14;;;;;;;6.05;2.70;;;;;;;;;;5038455;28;20227;-15
2022/08/21 06:20:41;;;;;;;4.07;3.13;;;;;;;;;;5050548;28;20238;-15
2022/08/21 06:23:09;;;;;;;5.60;2.90;;;;;;;;;;5049473;28;20252;-15
2022/08/21 06:25:36;;;;;;;4.43;3.05;;;;;;;;;;5049114;28;20238;-15
2022/08/21 06:28:04;;;;;;;5.97;3.00;;;;;;;;;;5049928;28;20610;-15
2022/08/21 06:30:33;;;;;;;6.07;3.38;;;;;;;;;;5049087;28;20230;-15
2022/08/21 06:33:01;;;;;;;4.18;2.92;;;;;;;;;;5049065;28;20248;-15
2022/08/21 06:35:29;;;;;;;5.95;3.17;;;;;;;;;;5049724;28;20230;-16
2022/08/21 06:37:56;;;;;;;6.28;3.38;;;;;;;;;;5048731;28;20788;-15
2022/08/21 06:40:23;;;;;;;4.05;2.83;;;;;;;;;;5040583;28;20239;-15
2022/08/21 06:42:51;;;;;;;7.57;4.15;;;;;;;;;;5032252;28;20246;-15
2022/08/21 06:45:18;;;;;;;5.97;2.92;;;;;;;;;;5033858;28;20681;-15
2022/08/21 06:47:47;;;;;;;5.15;2.95;;;;;;;;;;5033767;28;20231;-15
2022/08/21 06:50:14;;;;;;;6.38;3.65;;;;;;;;;;5039423;28;20756;-14
2022/08/21 06:52:42;;;;;;;5.90;3.08;;;;;;;;;;5035285;28;20708;-15
2022/08/21 06:55:09;;;;;;;6.50;3.53;;;;;;;;;;5041075;28;20241;-15
2022/08/21 06:57:37;;;;;;;7.95;4.00;;;;;;;;;;5044721;28;20232;-15
2022/08/21 07:00:04;;;;;;;7.47;3.92;;;;;;;;;;5032156;28;21408;-15
2022/08/21 07:02:33;;;;;;;5.85;3.45;;;;;;;;;;5042608;28;20226;-15
2022/08/21 07:05:01;;;;;;;8.15;3.35;;;;;;;;;;5040026;28;20233;-15
2022/08/21 07:07:44;;;;;;;4.53;3.70;;;;;;;;;;5044941;28;20230;-15
2022/08/21 07:10:11;;;;;;;5.57;3.40;;;;;;;;;;5049083;28;20226;-14
2022/08/21 07:12:50;;;;;;;6.63;3.63;;;;;;;;;;5034805;28;20242;-14
2022/08/21 07:15:27;;;;;;;9.32;3.42;;;;;;;;;;5036876;28;20234;-14
2022/08/21 07:17:56;;;;;;;4.85;3.50;;;;;;;;;;5037843;28;20230;-16
2022/08/21 07:20:25;;;;;;;5.07;3.90;;;;;;;;;;5039742;28;20321;-15
2022/08/21 07:22:52;;;;;;;7.65;4.05;;;;;;;;;;5001643;28;1046111;-15
2022/08/21 07:25:20;;;;;;;9.45;3.88;;;;;;;;;;5032331;28;20227;-16
2022/08/21 07:27:47;;;;;;;6.38;3.65;;;;;;;;;;5037914;28;20238;-16
2022/08/21 07:30:14;;;;;;;8.20;4.20;;;;;;;;;;5044475;28;20642;-16
2022/08/21 07:32:42;;;;;;;7.35;3.88;;;;;;;;;;5049913;28;20253;-14
2022/08/21 07:35:09;;;;;;;7.90;4.53;;;;;;;;;;5049957;28;20234;-15
2022/08/21 07:37:38;;;;;;;9.93;4.72;;;;;;;;;;5042610;28;20226;-15
2022/08/21 07:40:06;;;;;;;7.00;4.00;;;;;;;;;;5049072;28;20774;-15
2022/08/21 07:42:33;;;;;;;14.73;4.82;;;;;;;;;;5048344;28;20234;-15
2022/08/21 07:45:01;;;;;;;9.50;4.00;;;;;;;;;;5048320;28;20233;-15
2022/08/21 07:47:28;;;;;;;7.78;4.28;;;;;;;;;;5049599;28;20238;-15
2022/08/21 07:50:08;;;;;;;8.10;4.20;;;;;;;;;;5049397;28;20229;-15
2022/08/21 07:52:37;;;;;;;7.53;4.93;;;;;;;;;;5050065;28;21055;-15
2022/08/21 07:55:05;;;;;;;7.78;4.75;;;;;;;;;;5052133;28;20277;-15
2022/08/21 07:57:33;;;;;;;7.10;4.57;;;;;;;;;;5052751;28;20234;-15
2022/08/21 08:00:00;;;;;;;8.40;5.05;;;;;;;;;;5049107;28;20238;-15
2022/08/21 08:02:28;;;;;;;15.52;4.97;;;;;;;;;;5052301;28;20234;-16
2022/08/21 08:04:58;;;;;;;8.35;4.20;;;;;;;;;;5052384;28;20967;-15
2022/08/21 08:07:25;;;;;;;9.13;3.97;;;;;;;;;;5051342;28;20234;-15
2022/08/21 08:09:54;;;;;;;10.73;4.47;;;;;;;;;;5052388;28;20230;-16
2022/08/21 08:12:22;;;;;;;8.43;3.88;;;;;;;;;;5052314;28;20237;-15
2022/08/21 08:14:49;;;;;;;7.18;3.88;;;;;;;;;;5050246;28;20714;-15
2022/08/21 08:17:18;;;;;;;8.05;3.85;;;;;;;;;;5051574;28;20352;-15
2022/08/21 08:19:46;;;;;;;9.05;4.20;;;;;;;;;;5051401;28;20261;-15
2022/08/21 08:22:14;;;;;;;8.35;3.53;;;;;;;;;;5051654;28;20990;-15
2022/08/21 08:24:42;;;;;;;6.15;3.28;;;;;;;;;;5052470;28;20225;-16
2022/08/21 08:27:10;;;;;;;10.05;3.60;;;;;;;;;;5051240;28;20238;-15
2022/08/21 08:29:38;;;;;;;6.85;3.42;;;;;;;;;;5051242;28;20226;-14
2022/08/21 08:32:07;;;;;;;10.30;3.60;;;;;;;;;;5052244;28;20280;-15
2022/08/21 08:34:34;;;;;;;9.82;3.83;;;;;;;;;;5045556;28;20617;-15
2022/08/21 08:37:02;;;;;;;6.82;3.30;;;;;;;;;;5049916;28;20238;-15
2022/08/21 08:39:32;;;;;;;6.78;2.75;;;;;;;;;;5048258;28;20241;-15
2022/08/21 08:42:03;;;;;;;10.10;3.20;;;;;;;;;;5051251;28;20244;-15
2022/08/21 08:44:56;;;;;;;8.20;2.70;;;;;;;;;;5049381;28;20265;-15
2022/08/21 08:47:24;;;;;;;10.63;3.45;;;;;;;;;;5051515;28;20256;-16
2022/08/21 08:49:54;;;;;;;6.88;3.10;;;;;;;;;;5047149;28;20238;-15
2022/08/21 08:52:22;;;;;;;7.50;3.00;;;;;;;;;;5049647;28;20230;-16
2022/08/21 08:54:51;;;;;;;8.88;3.58;;;;;;;;;;5047565;28;20234;-14
2022/08/21 08:57:18;;;;;;;8.45;2.80;;;;;;;;;;5049076;28;20635;-15
2022/08/21 08:59:47;;;;;;;6.78;2.80;;;;;;;;;;5044993;28;21277;-15
2022/08/21 09:02:16;;;;;;;9.85;2.78;;;;;;;;;;5047197;28;20953;-16
2022/08/21 09:04:44;;;;;;;8.77;3.03;;;;;;;;;;5049388;28;20230;-16
2022/08/21 09:07:13;;;;;;;7.35;2.95;;;;;;;;;;5045830;28;20238;-15
2022/08/21 09:09:48;;;;;;;6.05;2.75;;;;;;;;;;5051762;28;20230;-15
2022/08/21 09:12:16;;;;;;;9.15;2.63;;;;;;;;;;5049760;28;20229;-15
2022/08/21 09:14:48;;;;;;;5.88;2.55;;;;;;;;;;5049124;28;20242;-15
2022/08/21 09:17:20;;;;;;;5.22;2.13;;;;;;;;;;5049112;28;20233;-15
2022/08/21 09:19:51;;;;;;;7.10;2.70;;;;;;;;;;5049203;28;20233;-15
2022/08/21 09:22:20;;;;;;;7.35;2.60;;;;;;;;;;5050168;28;20717;-15
2022/08/21 09:24:50;;;;;;;7.40;2.65;;;;;;;;;;5049382;28;20230;-15
2022/08/21 09:27:18;;;;;;;7.68;2.65;;;;;;;;;;5051741;28;20238;-15
2022/08/21 09:29:47;;;;;;;7.22;2.70;;;;;;;;;;5046688;28;20783;-15
2022/08/21 09:32:18;;;;;;;6.60;2.88;;;;;;;;;;5047772;28;20223;-15
2022/08/21 09:34:57;;;;;;;8.00;2.38;;;;;;;;;;5049627;28;21100;-15
2022/08/21 09:37:24;;;;;;;8.95;2.63;;;;;;;;;;5047829;28;20234;-15
2022/08/21 09:39:51;;;;;;;8.07;2.88;;;;;;;;;;5050633;28;20238;-15
2022/08/21 09:42:23;;;;;;;10.00;2.55;;;;;;;;;;5050792;28;20755;-14
2022/08/21 09:44:52;;;;;;;8.52;3.00;;;;;;;;;;5050671;28;20233;-16
2022/08/21 09:47:20;;;;;;;6.20;2.38;;;;;;;;;;5051139;28;21096;-16
2022/08/21 09:49:53;;;;;;;7.20;2.47;;;;;;;;;;5046540;28;20230;-16
2022/08/21 09:52:22;;;;;;;8.75;2.88;;;;;;;;;;5047251;28;20226;-15
2022/08/21 09:54:50;;;;;;;6.70;2.63;;;;;;;;;;5047986;28;20241;-15
2022/08/21 10:00:10;;;;;;;9.50;2.58;;;;;;;;;;5043864;28;20224;-15
2022/08/21 10:02:38;;;;;;;6.82;2.78;;;;;;;;;;5048103;28;20329;-15
2022/08/21 10:05:08;;;;;;;8.63;2.75;;;;;;;;;;5048291;28;20230;-15
2022/08/21 10:07:38;;;;;;;8.73;2.80;;;;;;;;;;5046203;28;20230;-15
2022/08/21 10:10:06;;;;;;;10.40;2.88;;;;;;;;;;5045398;28;20236;-15
2022/08/21 10:12:36;;;;;;;6.18;2.45;;;;;;;;;;5046852;28;20325;-15
2022/08/21 10:15:07;;;;;;;10.50;2.22;;;;;;;;;;5049255;28;21064;-15
2022/08/21 10:17:37;;;;;;;9.98;2.15;;;;;;;;;;5046818;28;20713;-15
2022/08/21 10:20:05;;;;;;;4.63;2.05;;;;;;;;;;5046839;28;20689;-15
2022/08/21 10:22:35;;;;;;;9.15;2.40;;;;;;;;;;5049820;28;20697;-16
2022/08/21 10:25:06;;;;;;;9.65;2.80;;;;;;;;;;5050760;28;20226;-16
2022/08/21 10:27:35;;;;;;;6.57;2.20;;;;;;;;;;5047510;28;20234;-16
2022/08/21 10:30:04;;;;;;;7.35;2.45;;;;;;;;;;5050259;28;20284;-15
2022/08/21 10:32:49;;;;;;;6.97;2.15;;;;;;;;;;5044986;28;20226;-15
2022/08/21 10:35:18;;;;;;;6.65;2.70;;;;;;;;;;5046913;28;20250;-14
2022/08/21 10:37:49;;;;;;;5.68;1.95;;;;;;;;;;5039871;28;20988;-16
2022/08/21 10:40:20;;;;;;;7.43;1.92;;;;;;;;;;5044142;28;20389;-15
2022/08/21 10:42:50;;;;;;;7.80;2.03;;;;;;;;;;5037468;28;20230;-15
2022/08/21 10:45:21;;;;;;;6.38;2.28;;;;;;;;;;5032929;28;21177;-16
2022/08/21 10:47:49;;;;;;;6.03;2.38;;;;;;;;;;5041765;28;20754;-16
2022/08/21 10:50:26;;;;;;;11.52;2.70;;;;;;;;;;5031052;28;20231;-16
2022/08/21 10:52:57;;;;;;;4.10;1.90;;;;;;;;;;5046808;28;20226;-17
2022/08/21 10:55:26;;;;;;;6.90;2.08;;;;;;;;;;5051183;28;20293;-16
2022/08/21 10:57:55;;;;;;;6.32;2.17;;;;;;;;;;5050289;28;20222;-16
2022/08/21 11:00:23;;;;;;;7.82;2.20;;;;;;;;;;5049698;28;20226;-16
2022/08/21 11:02:53;;;;;;;8.82;1.85;;;;;;;;;;5048487;28;20234;-16
2022/08/21 11:05:25;;;;;;;7.65;1.85;;;;;;;;;;5051328;28;20258;-16
2022/08/21 11:07:54;;;;;;;4.80;1.77;;;;;;;;;;5050201;28;20701;-16
2022/08/21 11:10:22;;;;;;;9.18;2.47;;;;;;;;;;5050908;28;20258;-16
2022/08/21 11:12:54;;;;;;;6.72;1.98;;;;;;;;;;5050470;28;20320;-15
2022/08/21 11:15:35;;;;;;;8.57;2.35;;;;;;;;;;5046363;28;20717;-16
2022/08/21 11:18:04;;;;;;;6.60;1.92;;;;;;;;;;5049590;28;20230;-16
2022/08/21 11:20:34;;;;;;;7.00;2.00;;;;;;;;;;5050219;28;20283;-16
2022/08/21 11:23:02;;;;;;;8.82;2.00;;;;;;;;;;5049759;28;20246;-16
2022/08/21 11:25:32;;;;;;;5.65;2.13;;;;;;;;;;5049524;28;21001;-16
2022/08/21 11:28:06;;;;;;;6.50;1.77;;;;;;;;;;5050445;28;20222;-15
2022/08/21 11:30:40;;;;;;;6.10;1.75;;;;;;;;;;5052523;28;20233;-16
2022/08/21 11:33:11;;;;;;;8.57;1.77;;;;;;;;;;5054120;28;20237;-16
2022/08/21 11:35:39;;;;;;;5.53;1.80;;;;;;;;;;5048409;28;20729;-15
2022/08/21 11:38:11;;;;;;;6.72;1.70;;;;;;;;;;5053858;28;20990;-15
2022/08/21 11:40:42;;;;;;;3.08;1.70;;;;;;;;;;5053357;28;20967;-16
2022/08/21 11:43:12;;;;;;;6.00;1.80;;;;;;;;;;5053402;28;20230;-16
2022/08/21 11:45:40;;;;;;;4.15;1.38;;;;;;;;;;5053464;28;20237;-16
2022/08/21 11:48:08;;;;;;;4.72;1.65;;;;;;;;;;5053106;28;20233;-15
2022/08/21 11:50:36;;;;;;;5.90;1.60;;;;;;;;;;5052796;28;20245;-16
2022/08/21 11:53:04;;;;;;;4.35;1.70;;;;;;;;;;5049789;28;20236;-16
2022/08/21 11:55:32;;;;;;;7.43;1.60;;;;;;;;;;5042006;28;20238;-16
2022/08/21 11:58:00;;;;;;;6.57;1.67;;;;;;;;;;5053410;28;20230;-15
2022/08/21 12:00:30;;;;;;;4.72;1.73;;;;;;;;;;5046120;28;20713;-15
2022/08/21 12:02:58;;;;;;;3.45;1.90;;;;;;;;;;5052985;28;20237;-16
2022/08/21 12:05:28;;;;;;;5.75;1.70;;;;;;;;;;5041520;28;20231;-16
2022/08/21 12:08:04;;;;;;;7.53;1.63;;;;;;;;;;5047773;28;20230;-16
2022/08/21 12:10:32;;;;;;;4.45;1.75;;;;;;;;;;5052721;28;20238;-16
2022/08/21 12:13:08;;;;;;;3.55;1.50;;;;;;;;;;5052178;28;20234;-15
2022/08/21 12:15:36;;;;;;;6.20;2.00;;;;;;;;;;5047152;28;20230;-16
2022/08/21 12:18:04;;;;;;;5.82;1.83;;;;;;;;;;5033520;28;20230;-15
2022/08/21 12:20:36;;;;;;;6.45;1.95;;;;;;;;;;5044223;28;20234;-15
2022/08/21 12:23:05;;;;;;;5.90;1.55;;;;;;;;;;5048518;28;20246;-16
2022/08/21 12:25:39;;;;;;;7.53;1.65;;;;;;;;;;5045666;28;22207;-15
2022/08/21 12:28:08;;;;;;;8.10;1.98;;;;;;;;;;5048643;28;20230;-15
2022/08/21 12:30:38;;;;;;;5.32;1.63;;;;;;;;;;5041689;28;20238;-15
2022/08/21 12:33:06;;;;;;;7.85;2.03;;;;;;;;;;5042181;28;20241;-15
2022/08/21 12:35:34;;;;;;;11.30;2.50;;;;;;;;;;5045837;28;20245;-14
2022/08/21 12:38:02;;;;;;;6.18;1.40;;;;;;;;;;5044029;28;20256;-15
2022/08/21 12:40:30;;;;;;;6.07;1.77;;;;;;;;;;5045436;28;20241;-15
2022/08/21 12:42:58;;;;;;;4.47;1.63;;;;;;;;;;5044907;28;20610;-15
2022/08/21 12:45:28;;;;;;;6.57;1.80;;;;;;;;;;5048580;28;20782;-14
2022/08/21 12:47:57;;;;;;;4.75;1.75;;;;;;;;;;5046364;28;20238;-15
2022/08/21 12:50:25;;;;;;;4.60;1.50;;;;;;;;;;5049396;28;20285;-15
2022/08/21 12:52:55;;;;;;;5.00;2.00;;;;;;;;;;5044412;28;20245;-15
2022/08/21 12:55:26;;;;;;;5.20;2.13;;;;;;;;;;5044200;28;20701;-15
2022/08/21 12:57:53;;;;;;;12.48;1.75;;;;;;;;;;5045259;28;20253;-15
2022/08/21 13:00:21;;;;;;;6.07;1.52;;;;;;;;;;5048530;28;20234;-17
2022/08/21 13:02:49;;;;;;;6.78;1.52;;;;;;;;;;5047145;28;20714;-16
2022/08/21 13:05:20;;;;;;;4.25;1.58;;;;;;;;;;5044943;28;20237;-16
2022/08/21 13:07:48;;;;;;;4.60;1.40;;;;;;;;;;5045500;28;20788;-16
2022/08/21 13:10:17;;;;;;;3.88;1.50;;;;;;;;;;5046682;28;20650;-16
2022/08/21 13:12:45;;;;;;;5.28;1.90;;;;;;;;;;5044528;28;20276;-16
2022/08/21 13:15:12;;;;;;;3.10;1.33;;;;;;;;;;5043368;28;20950;-16
2022/08/21 13:17:42;;;;;;;5.30;1.77;;;;;;;;;;5040707;28;20262;-15
2022/08/21 13:20:11;;;;;;;4.72;1.60;;;;;;;;;;5044353;28;20223;-16
2022/08/21 13:22:42;;;;;;;3.70;1.27;;;;;;;;;;5046168;28;20242;-16
2022/08/21 13:25:10;;;;;;;2.95;1.30;;;;;;;;;;5046692;28;20234;-15
2022/08/21 13:27:37;;;;;;;5.53;1.58;;;;;;;;;;5046724;28;20693;-15
2022/08/21 13:30:06;;;;;;;6.28;1.80;;;;;;;;;;5045696;28;20245;-16
2022/08/21 13:32:34;;;;;;;4.97;1.42;;;;;;;;;;5047039;28;20237;-15
2022/08/21 13:35:07;;;;;;;9.00;1.58;;;;;;;;;;5041096;28;20252;-16
2022/08/21 13:37:35;;;;;;;4.53;1.40;;;;;;;;;;5045503;28;20238;-16
2022/08/21 13:40:07;;;;;;;3.22;1.33;;;;;;;;;;5047765;28;20237;-17
2022/08/21 13:42:34;;;;;;;4.95;1.55;;;;;;;;;;5041199;28;20230;-15
2022/08/21 13:45:02;;;;;;;6.18;1.60;;;;;;;;;;5047134;28;20226;-15
2022/08/21 13:47:29;;;;;;;4.72;1.58;;;;;;;;;;5046726;28;20901;-15
2022/08/21 13:49:57;;;;;;;5.28;1.45;;;;;;;;;;5043340;28;20727;-16
2022/08/21 13:52:26;;;;;;;4.10;1.60;;;;;;;;;;5046352;28;20226;-16
2022/08/21 13:54:54;;;;;;;5.22;1.40;;;;;;;;;;5047616;28;20237;-15
2022/08/21 13:57:27;;;;;;;4.13;1.38;;;;;;;;;;5040473;28;20695;-16
2022/08/21 13:59:54;;;;;;;4.72;1.65;;;;;;;;;;5047828;28;20226;-16
2022/08/21 14:02:23;;;;;;;3.22;1.20;;;;;;;;;;5044927;28;20234;-15
2022/08/21 14:04:51;;;;;;;5.03;1.13;;;;;;;;;;5048193;28;20229;-16
2022/08/21 14:07:20;;;;;;;4.35;1.30;;;;;;;;;;5047563;28;20680;-16
2022/08/21 14:09:47;;;;;;;5.35;1.75;;;;;;;;;;5047170;28;20230;-16
2022/08/21 14:12:15;;;;;;;4.05;1.52;;;;;;;;;;5046869;28;20221;-17
2022/08/21 14:14:51;;;;;;;4.53;1.50;;;;;;;;;;5046006;28;20237;-16
2022/08/21 14:17:26;;;;;;;4.60;1.60;;;;;;;;;;5046775;28;20238;-16
2022/08/21 14:20:00;;;;;;;3.10;1.33;;;;;;;;;;5044299;28;20709;-16
2022/08/21 14:22:29;;;;;;;3.47;1.80;;;;;;;;;;5046681;28;20982;-16
2022/08/21 14:25:00;;;;;;;4.97;1.55;;;;;;;;;;5047237;28;20240;-15
2022/08/21 14:27:29;;;;;;;3.25;1.30;;;;;;;;;;5046545;28;20709;-15
2022/08/21 14:29:59;;;;;;;4.53;1.50;;;;;;;;;;5046997;28;20245;-15
2022/08/21 14:32:29;;;;;;;3.92;1.85;;;;;;;;;;5046797;28;20322;-14
2022/08/21 14:34:59;;;;;;;4.68;1.58;;;;;;;;;;5047051;28;20244;-16
2022/08/21 14:37:26;;;;;;;7.60;1.70;;;;;;;;;;5046703;28;20242;-15
2022/08/21 14:39:53;;;;;;;4.18;1.67;;;;;;;;;;5045786;28;20234;-15
2022/08/21 14:42:21;;;;;;;6.32;1.60;;;;;;;;;;5048364;28;20270;-15
2022/08/21 14:44:48;;;;;;;3.65;1.80;;;;;;;;;;5045006;28;20246;-16
2022/08/21 14:47:17;;;;;;;3.83;1.42;;;;;;;;;;5047529;28;20253;-16
2022/08/21 14:49:44;;;;;;;3.15;1.50;;;;;;;;;;5047097;28;20252;-15
2022/08/21 14:52:11;;;;;;;10.77;2.00;;;;;;;;;;5046503;28;20233;-15
2022/08/21 14:54:39;;;;;;;7.90;1.85;;;;;;;;;;5046567;28;20234;-15